createdAt,value
2022-11-30T00:01:25.434Z,7.70
2022-11-30T00:03:55.336Z,7.70
2022-11-30T00:06:23.840Z,7.70
2022-11-30T00:08:54.151Z,7.70
2022-11-30T00:11:22.939Z,7.60
2022-11-30T00:13:51.263Z,7.60
2022-11-30T00:16:19.207Z,7.60
2022-11-30T00:18:47.141Z,7.50
2022-11-30T00:21:16.435Z,7.50
2022-11-30T00:23:46.176Z,7.50
2022-11-30T00:26:16.689Z,7.50
2022-11-30T00:28:45.693Z,7.50
2022-11-30T00:31:16.709Z,7.50
2022-11-30T00:33:45.128Z,7.50
2022-11-30T00:36:14.737Z,7.50
2022-11-30T00:38:42.816Z,7.40
2022-11-30T00:41:10.856Z,7.40
2022-11-30T00:43:40.117Z,7.40
2022-11-30T00:46:09.768Z,7.40
2022-11-30T00:48:37.947Z,7.40
2022-11-30T00:51:06.462Z,7.40
2022-11-30T00:53:34.356Z,7.40
2022-11-30T00:56:02.153Z,7.40
2022-11-30T00:58:29.919Z,7.30
2022-11-30T01:00:59.153Z,7.30
2022-11-30T01:03:27.105Z,7.30
2022-11-30T01:05:54.855Z,7.30
2022-11-30T01:08:22.950Z,7.30
2022-11-30T01:10:53.721Z,7.30
2022-11-30T01:13:21.990Z,7.30
2022-11-30T01:15:49.763Z,7.30
2022-11-30T01:18:18.918Z,7.30
2022-11-30T01:20:46.833Z,7.30
2022-11-30T01:23:14.664Z,7.30
2022-11-30T01:25:42.493Z,7.30
2022-11-30T01:28:11.287Z,7.30
2022-11-30T01:30:39.092Z,7.30
2022-11-30T01:33:07.599Z,7.30
2022-11-30T01:35:36.703Z,7.30
2022-11-30T01:38:04.576Z,7.30
2022-11-30T01:40:32.335Z,7.30
2022-11-30T01:43:00.183Z,7.30
2022-11-30T01:45:28.083Z,7.30
2022-11-30T01:47:58.375Z,7.30
2022-11-30T01:50:31.326Z,7.30
2022-11-30T01:53:00.675Z,7.40
2022-11-30T01:55:30.868Z,7.40
2022-11-30T01:58:02.815Z,7.40
2022-11-30T02:00:30.662Z,7.40
2022-11-30T02:03:05.810Z,7.40
2022-11-30T02:05:35.565Z,7.40
2022-11-30T02:08:05.849Z,7.50
2022-11-30T02:10:36.876Z,7.50
2022-11-30T02:13:29.309Z,7.50
2022-11-30T02:16:02.795Z,7.50
2022-11-30T02:18:37.003Z,7.50
2022-11-30T02:21:13.760Z,7.50
2022-11-30T02:24:15.632Z,7.50
2022-11-30T02:26:59.212Z,7.50
2022-11-30T02:29:30.889Z,7.60
2022-11-30T02:32:04.165Z,7.60
2022-11-30T02:34:34.055Z,7.60
2022-11-30T02:37:03.072Z,7.60
2022-11-30T02:39:30.869Z,7.60
2022-11-30T02:41:58.740Z,7.60
2022-11-30T02:44:28.935Z,7.60
2022-11-30T02:47:13.588Z,7.60
2022-11-30T02:49:49.669Z,7.60
2022-11-30T02:52:19.739Z,7.60
2022-11-30T02:54:47.932Z,7.60
2022-11-30T02:57:15.974Z,7.60
2022-11-30T02:59:45.346Z,7.60
2022-11-30T03:02:13.852Z,7.60
2022-11-30T03:04:41.605Z,7.60
2022-11-30T03:07:09.372Z,7.70
2022-11-30T03:09:37.173Z,7.70
2022-11-30T03:12:05.190Z,7.70
2022-11-30T03:14:32.961Z,7.70
2022-11-30T03:17:02.110Z,7.70
2022-11-30T03:19:29.945Z,7.70
2022-11-30T03:21:57.835Z,7.70
2022-11-30T03:24:25.677Z,7.70
2022-11-30T03:26:53.820Z,7.70
2022-11-30T03:29:21.651Z,7.70
2022-11-30T03:31:49.512Z,7.70
2022-11-30T03:41:04.286Z,7.70
2022-11-30T03:43:32.188Z,7.70
2022-11-30T03:46:00.143Z,7.70
2022-11-30T03:48:28.108Z,7.70
2022-11-30T03:50:55.924Z,7.70
2022-11-30T03:53:24.978Z,7.70
2022-11-30T03:55:54.299Z,7.70
2022-11-30T03:58:24.162Z,7.70
2022-11-30T04:00:52.505Z,7.70
2022-11-30T04:03:20.392Z,7.70
2022-11-30T04:05:48.525Z,7.80
2022-11-30T04:08:16.329Z,7.80
2022-11-30T04:10:46.903Z,7.70
2022-11-30T04:13:14.684Z,7.80
2022-11-30T04:15:43.833Z,7.80
2022-11-30T04:18:11.647Z,7.80
2022-11-30T04:20:40.781Z,7.80
2022-11-30T04:23:09.207Z,7.80
2022-11-30T04:25:39.292Z,7.80
2022-11-30T04:28:07.290Z,7.80
2022-11-30T04:30:36.382Z,7.80
2022-11-30T04:33:06.085Z,7.80
2022-11-30T04:35:34.609Z,7.80
2022-11-30T04:38:02.715Z,7.80
2022-11-30T04:40:30.506Z,7.80
2022-11-30T04:42:58.277Z,7.80
2022-11-30T04:45:26.446Z,7.80
2022-11-30T04:47:55.963Z,7.80
2022-11-30T04:50:25.328Z,7.80
2022-11-30T04:52:53.116Z,7.80
2022-11-30T04:55:20.921Z,7.80
2022-11-30T04:57:49.074Z,7.80
2022-11-30T05:00:18.837Z,7.80
2022-11-30T05:02:52.510Z,7.80
2022-11-30T05:05:21.283Z,7.80
2022-11-30T05:07:52.236Z,7.80
2022-11-30T05:10:20.102Z,7.80
2022-11-30T05:12:47.847Z,7.80
2022-11-30T05:15:15.651Z,7.80
2022-11-30T05:17:43.526Z,7.90
2022-11-30T05:20:13.912Z,7.90
2022-11-30T05:22:41.848Z,7.90
2022-11-30T05:25:11.477Z,7.90
2022-11-30T05:27:39.588Z,7.90
2022-11-30T05:30:08.599Z,7.90
2022-11-30T05:32:36.432Z,7.90
2022-11-30T05:35:06.745Z,7.90
2022-11-30T05:37:34.540Z,7.90
2022-11-30T05:40:02.398Z,7.80
2022-11-30T05:42:32.068Z,7.80
2022-11-30T05:45:02.954Z,7.80
2022-11-30T05:47:30.802Z,7.80
2022-11-30T05:49:58.801Z,7.80
2022-11-30T05:52:26.607Z,7.80
2022-11-30T05:54:54.409Z,7.80
2022-11-30T05:57:22.248Z,7.80
2022-11-30T05:59:51.402Z,7.80
2022-11-30T06:02:22.567Z,7.80
2022-11-30T06:04:54.477Z,7.80
2022-11-30T06:07:22.368Z,7.80
2022-11-30T06:09:50.200Z,7.90
2022-11-30T06:12:17.983Z,7.90
2022-11-30T06:14:46.146Z,7.90
2022-11-30T06:17:15.359Z,7.80
2022-11-30T06:19:43.156Z,7.80
2022-11-30T06:22:10.940Z,7.90
2022-11-30T06:24:38.871Z,7.80
2022-11-30T06:27:06.716Z,7.80
2022-11-30T06:29:34.484Z,7.80
2022-11-30T06:32:02.317Z,7.80
2022-11-30T06:34:32.899Z,7.80
2022-11-30T06:37:00.669Z,7.90
2022-11-30T06:39:57.959Z,7.80
2022-11-30T06:42:16.503Z,7.80
2022-11-30T06:44:44.515Z,7.70
2022-11-30T06:47:12.823Z,7.70
2022-11-30T06:49:41.956Z,7.70
2022-11-30T06:52:09.829Z,7.70
2022-11-30T06:54:37.614Z,7.70
2022-11-30T06:57:05.452Z,7.70
2022-11-30T06:59:33.243Z,7.70
2022-11-30T07:02:07.498Z,7.60
2022-11-30T07:04:36.680Z,7.70
2022-11-30T07:07:07.578Z,7.60
2022-11-30T07:09:35.443Z,7.70
2022-11-30T07:12:03.360Z,7.60
2022-11-30T07:14:31.441Z,7.60
2022-11-30T07:16:59.320Z,7.70
2022-11-30T07:19:27.124Z,7.70
2022-11-30T07:21:54.990Z,7.70
2022-11-30T07:24:56.641Z,7.70
2022-11-30T07:27:24.495Z,7.70
2022-11-30T07:29:52.793Z,7.70
2022-11-30T07:32:20.623Z,7.70
2022-11-30T07:34:48.728Z,7.60
2022-11-30T07:37:16.710Z,7.70
2022-11-30T07:39:46.308Z,7.70
2022-11-30T07:42:14.143Z,7.70
2022-11-30T07:44:42.180Z,7.70
2022-11-30T07:47:10.040Z,7.70
2022-11-30T07:49:39.676Z,7.70
2022-11-30T07:52:08.284Z,7.70
2022-11-30T07:54:36.317Z,7.70
2022-11-30T07:57:05.775Z,7.70
2022-11-30T07:59:33.580Z,7.70
2022-11-30T08:02:01.569Z,7.70
2022-11-30T08:04:29.546Z,7.80
2022-11-30T08:06:57.444Z,7.80
2022-11-30T08:09:25.373Z,7.80
2022-11-30T08:11:53.255Z,7.90
2022-11-30T08:14:22.405Z,7.90
2022-11-30T08:16:51.679Z,7.90
2022-11-30T08:19:19.752Z,8.00
2022-11-30T08:21:47.785Z,8.00
2022-11-30T08:24:15.892Z,8.00
2022-11-30T08:26:43.759Z,8.00
2022-11-30T08:29:11.744Z,8.10
2022-11-30T08:31:40.965Z,8.20
2022-11-30T08:34:11.484Z,8.20
2022-11-30T08:36:39.912Z,8.30
2022-11-30T08:39:09.816Z,8.30
2022-11-30T08:41:38.995Z,8.40
2022-11-30T08:44:07.254Z,8.40
2022-11-30T08:46:52.182Z,8.50
2022-11-30T08:49:24.469Z,8.50
2022-11-30T08:54:45.226Z,8.60
2022-11-30T08:57:13.848Z,8.50
2022-11-30T08:59:41.844Z,8.50
2022-11-30T09:02:10.738Z,8.60
2022-11-30T09:04:39.902Z,8.50
2022-11-30T09:07:10.176Z,8.50
2022-11-30T09:09:38.199Z,8.50
2022-11-30T09:12:06.765Z,8.60
2022-11-30T09:14:34.560Z,8.50
2022-11-30T09:17:02.434Z,8.60
2022-11-30T09:19:30.408Z,8.70
2022-11-30T09:22:00.439Z,8.60
2022-11-30T09:24:28.256Z,8.60
2022-11-30T09:26:57.196Z,8.60
2022-11-30T09:29:25.308Z,8.60
2022-11-30T09:31:53.127Z,8.70
2022-11-30T09:34:21.111Z,8.60
2022-11-30T09:36:49.227Z,8.70
2022-11-30T09:39:21.286Z,8.60
2022-11-30T09:42:12.509Z,8.60
2022-11-30T09:44:50.449Z,8.60
2022-11-30T09:47:36.591Z,8.70
2022-11-30T09:50:11.582Z,8.70
2022-11-30T09:52:44.098Z,8.80
2022-11-30T09:55:18.660Z,8.70
2022-11-30T09:57:49.712Z,8.80
2022-11-30T10:00:21.667Z,8.80
2022-11-30T10:02:51.768Z,8.90
2022-11-30T10:05:23.596Z,8.80
2022-11-30T10:08:09.208Z,8.80
2022-11-30T10:10:45.023Z,8.70
2022-11-30T10:13:32.717Z,8.80
2022-11-30T10:16:13.337Z,8.90
2022-11-30T10:18:48.957Z,8.90
2022-11-30T10:21:34.891Z,8.90
2022-11-30T10:24:25.105Z,8.90
2022-11-30T10:26:56.144Z,9.00
2022-11-30T10:29:30.478Z,9.00
2022-11-30T10:32:00.696Z,9.00
2022-11-30T10:34:34.318Z,9.10
2022-11-30T10:37:07.216Z,9.10
2022-11-30T10:39:40.112Z,9.20
2022-11-30T10:42:13.825Z,9.20
2022-11-30T10:44:46.061Z,9.20
2022-11-30T10:47:18.459Z,9.20
2022-11-30T10:49:50.399Z,9.20
2022-11-30T10:52:21.632Z,9.20
2022-11-30T10:54:51.128Z,9.30
2022-11-30T10:57:20.299Z,9.30
2022-11-30T10:59:51.992Z,9.40
2022-11-30T11:02:39.740Z,9.50
2022-11-30T11:05:23.083Z,9.60
2022-11-30T11:08:02.677Z,9.70
2022-11-30T11:10:36.300Z,9.80
2022-11-30T11:13:06.282Z,9.90
2022-11-30T11:15:35.482Z,10.00
2022-11-30T11:18:22.662Z,10.10
2022-11-30T11:21:06.174Z,10.20
2022-11-30T11:23:37.912Z,10.20
2022-11-30T11:26:07.299Z,10.30
2022-11-30T11:28:39.465Z,10.30
2022-11-30T11:31:19.122Z,10.30
2022-11-30T11:33:54.733Z,10.40
2022-11-30T11:36:28.993Z,10.40
2022-11-30T11:38:58.120Z,10.40
2022-11-30T11:41:29.148Z,10.40
2022-11-30T11:44:02.475Z,10.40
2022-11-30T11:46:31.614Z,10.40
2022-11-30T11:49:02.218Z,10.40
2022-11-30T11:51:34.605Z,10.40
2022-11-30T11:54:07.934Z,10.40
2022-11-30T11:56:37.836Z,10.40
2022-11-30T11:59:16.535Z,10.40
2022-11-30T12:01:51.893Z,10.40
2022-11-30T12:04:37.277Z,10.40
2022-11-30T12:07:17.956Z,10.30
2022-11-30T12:09:58.168Z,10.20
2022-11-30T12:12:26.050Z,10.30
2022-11-30T12:14:56.615Z,10.40
2022-11-30T12:17:36.663Z,10.40
2022-11-30T12:20:18.087Z,10.40
2022-11-30T12:23:01.280Z,10.30
2022-11-30T12:25:31.019Z,10.40
2022-11-30T12:28:14.512Z,10.20
2022-11-30T12:30:56.189Z,10.30
2022-11-30T12:33:34.392Z,10.30
2022-11-30T12:36:14.614Z,10.20
2022-11-30T12:38:49.033Z,10.20
2022-11-30T12:41:37.384Z,10.30
2022-11-30T12:49:09.019Z,10.10
2022-11-30T13:13:01.305Z,10.00
2022-11-30T13:15:32.021Z,10.00
2022-11-30T13:18:01.767Z,10.00
2022-11-30T13:20:37.928Z,10.00
2022-11-30T13:23:13.223Z,10.00
2022-11-30T13:28:51.182Z,9.80
2022-11-30T13:31:26.137Z,9.80
2022-11-30T13:34:01.734Z,9.80
2022-11-30T13:36:37.054Z,9.80
2022-11-30T13:39:22.654Z,9.80
2022-11-30T13:41:53.389Z,9.80
2022-11-30T13:44:32.860Z,9.80
2022-11-30T13:47:13.319Z,9.80
2022-11-30T13:49:41.436Z,9.80
2022-11-30T13:52:24.340Z,9.90
2022-11-30T13:54:54.667Z,9.80
2022-11-30T13:58:00.134Z,9.80
2022-11-30T14:01:02.277Z,9.70
2022-11-30T14:03:33.081Z,9.70
2022-11-30T14:06:02.214Z,9.70
2022-11-30T14:08:55.538Z,9.70
2022-11-30T14:11:43.578Z,9.60
2022-11-30T14:14:45.730Z,9.50
2022-11-30T14:17:29.500Z,9.40
2022-11-30T14:20:00.822Z,9.50
2022-11-30T14:22:30.717Z,9.50
2022-11-30T14:24:58.921Z,9.40
2022-11-30T14:27:29.892Z,9.30
2022-11-30T14:30:02.975Z,9.30
2022-11-30T14:32:37.896Z,9.20
2022-11-30T14:35:12.081Z,9.20
2022-11-30T14:37:45.695Z,9.20
2022-11-30T14:40:20.043Z,9.10
2022-11-30T14:42:50.766Z,9.10
2022-11-30T14:45:30.670Z,9.10
2022-11-30T14:48:17.812Z,9.00
2022-11-30T14:50:51.156Z,9.00
2022-11-30T14:53:30.464Z,9.00
2022-11-30T14:56:02.012Z,8.90
2022-11-30T14:58:35.791Z,8.80
2022-11-30T15:01:07.607Z,8.90
2022-11-30T15:03:40.636Z,8.90
2022-11-30T15:06:15.802Z,8.90
2022-11-30T15:08:48.517Z,8.90
2022-11-30T15:11:23.575Z,8.90
2022-11-30T15:13:53.806Z,9.00
2022-11-30T15:16:26.929Z,8.90
2022-11-30T15:18:58.091Z,8.80
2022-11-30T15:21:27.797Z,8.80
2022-11-30T15:23:57.204Z,8.70
2022-11-30T15:26:30.320Z,8.70
2022-11-30T15:29:17.119Z,8.70
2022-11-30T15:31:50.407Z,8.60
2022-11-30T15:34:22.347Z,8.70
2022-11-30T15:36:50.302Z,8.60
2022-11-30T15:39:21.977Z,8.70
2022-11-30T15:41:54.880Z,8.70
2022-11-30T15:44:38.466Z,8.70
2022-11-30T15:47:08.708Z,8.70
2022-11-30T15:49:38.022Z,8.70
2022-11-30T15:52:16.290Z,8.70
2022-11-30T15:54:46.309Z,8.70
2022-11-30T15:57:14.836Z,8.60
2022-11-30T15:59:43.101Z,8.70
2022-11-30T16:02:29.485Z,8.70
2022-11-30T16:05:24.342Z,8.70
2022-11-30T16:07:54.954Z,8.50
2022-11-30T16:10:25.338Z,8.50
2022-11-30T16:12:56.627Z,8.40
2022-11-30T16:15:27.266Z,8.50
2022-11-30T16:17:58.124Z,8.40
2022-11-30T16:20:27.451Z,8.40
2022-11-30T16:22:55.607Z,8.40
2022-11-30T16:25:26.815Z,8.30
2022-11-30T16:27:54.971Z,8.30
2022-11-30T16:30:24.777Z,8.30
2022-11-30T16:32:52.782Z,8.30
2022-11-30T16:35:23.348Z,8.40
2022-11-30T16:37:55.772Z,8.40
2022-11-30T16:40:24.164Z,8.40
2022-11-30T16:42:52.780Z,8.30
2022-11-30T16:45:23.704Z,8.30
2022-11-30T16:47:51.813Z,8.30
2022-11-30T16:50:20.487Z,8.30
2022-11-30T16:52:48.612Z,8.20
2022-11-30T16:55:20.135Z,8.20
2022-11-30T16:57:48.719Z,8.20
2022-11-30T17:00:18.754Z,8.20
2022-11-30T17:02:53.656Z,8.20
2022-11-30T17:05:21.729Z,8.20
2022-11-30T17:07:49.676Z,8.10
2022-11-30T17:10:19.866Z,8.10
2022-11-30T17:12:47.795Z,8.10
2022-11-30T17:15:20.674Z,8.10
2022-11-30T17:17:48.735Z,8.10
2022-11-30T17:20:17.952Z,8.10
2022-11-30T17:22:46.241Z,8.20
2022-11-30T17:25:18.334Z,8.20
2022-11-30T17:27:48.648Z,8.20
2022-11-30T17:30:19.264Z,8.10
2022-11-30T17:32:47.459Z,8.20
2022-11-30T17:35:16.083Z,8.10
2022-11-30T17:37:44.031Z,8.10
2022-11-30T17:40:15.393Z,8.10
2022-11-30T17:42:43.492Z,8.00
2022-11-30T17:45:13.160Z,8.00
2022-11-30T17:47:41.048Z,8.00
2022-11-30T17:50:09.952Z,7.90
2022-11-30T17:52:37.840Z,7.90
2022-11-30T17:55:06.161Z,8.00
2022-11-30T17:57:34.150Z,7.90
2022-11-30T18:00:03.264Z,8.00
2022-11-30T18:02:32.614Z,8.00
2022-11-30T18:05:01.878Z,8.00
2022-11-30T18:07:29.847Z,8.00
2022-11-30T18:09:58.595Z,8.00
2022-11-30T18:12:26.561Z,7.90
2022-11-30T18:14:54.459Z,8.00
2022-11-30T18:17:22.410Z,7.90
2022-11-30T18:19:51.947Z,7.90
2022-11-30T18:22:19.784Z,7.90
2022-11-30T18:24:49.109Z,7.80
2022-11-30T18:27:17.421Z,7.80
2022-11-30T18:29:45.262Z,7.80
2022-11-30T18:32:13.183Z,7.80
2022-11-30T18:34:41.241Z,7.80
2022-11-30T18:37:10.580Z,7.70
2022-11-30T18:39:38.463Z,7.70
2022-11-30T18:42:06.450Z,7.70
2022-11-30T18:44:34.395Z,7.70
2022-11-30T18:47:02.209Z,7.70
2022-11-30T18:49:30.055Z,7.70
2022-11-30T18:51:58.026Z,7.70
2022-11-30T18:54:27.367Z,7.70
2022-11-30T18:56:55.257Z,7.70
2022-11-30T18:59:23.151Z,7.70
2022-11-30T19:01:51.821Z,7.70
2022-11-30T19:04:19.740Z,7.70
2022-11-30T19:06:47.530Z,7.70
2022-11-30T19:09:16.441Z,7.70
2022-11-30T19:11:45.897Z,7.70
2022-11-30T19:14:15.767Z,7.70
2022-11-30T19:16:44.413Z,7.70
2022-11-30T19:19:14.897Z,7.60
2022-11-30T19:21:45.180Z,7.60
2022-11-30T19:24:13.051Z,7.60
2022-11-30T19:26:41.178Z,7.60
2022-11-30T19:29:12.203Z,7.50
2022-11-30T19:31:40.118Z,7.50
2022-11-30T19:34:12.460Z,7.60
2022-11-30T19:36:41.329Z,7.50
2022-11-30T19:39:10.428Z,7.50
2022-11-30T19:41:38.300Z,7.50
2022-11-30T19:44:06.315Z,7.40
2022-11-30T19:46:35.635Z,7.40
2022-11-30T19:49:03.699Z,7.40
2022-11-30T19:51:32.616Z,7.40
2022-11-30T19:54:00.833Z,7.40
2022-11-30T19:56:30.223Z,7.40
2022-11-30T19:59:04.077Z,7.40
2022-11-30T20:01:33.710Z,7.30
2022-11-30T20:04:04.114Z,7.30
2022-11-30T20:06:35.822Z,7.30
2022-11-30T20:09:04.578Z,7.30
2022-11-30T20:11:32.752Z,7.40
2022-11-30T20:14:00.879Z,7.30
2022-11-30T20:16:29.234Z,7.30
2022-11-30T20:19:00.593Z,7.30
2022-11-30T20:21:31.715Z,7.30
2022-11-30T20:24:02.167Z,7.30
2022-11-30T20:26:32.239Z,7.30
2022-11-30T20:29:01.650Z,7.40
2022-11-30T20:31:31.251Z,7.30
2022-11-30T20:34:00.261Z,7.30
2022-11-30T20:36:29.788Z,7.20
2022-11-30T20:38:58.759Z,7.20
2022-11-30T20:41:27.153Z,7.20
2022-11-30T20:43:55.874Z,7.10
2022-11-30T20:46:26.211Z,7.20
2022-11-30T20:48:56.526Z,7.10
2022-11-30T20:51:31.204Z,7.10
2022-11-30T20:54:05.609Z,7.20
2022-11-30T20:56:35.201Z,7.20
2022-11-30T20:59:05.915Z,7.20
2022-11-30T21:01:34.012Z,7.20
2022-11-30T21:04:02.657Z,7.00
2022-11-30T21:06:31.151Z,7.10
2022-11-30T21:08:59.639Z,7.10
2022-11-30T21:11:30.308Z,7.00
2022-11-30T21:13:59.038Z,7.00
2022-11-30T21:16:29.500Z,6.90
2022-11-30T21:18:59.172Z,6.90
2022-11-30T21:21:30.350Z,6.90
2022-11-30T21:23:58.872Z,6.90
2022-11-30T21:26:29.803Z,6.90
2022-11-30T21:29:01.523Z,6.90
2022-11-30T21:31:29.709Z,6.90
2022-11-30T21:33:57.608Z,6.80
2022-11-30T21:36:25.459Z,6.80
2022-11-30T21:39:04.606Z,6.70
2022-11-30T21:41:35.526Z,6.70
2022-11-30T21:44:03.711Z,6.60
2022-11-30T21:46:31.859Z,6.50
2022-11-30T21:48:59.893Z,6.60
2022-11-30T21:51:29.301Z,6.60
2022-11-30T21:53:59.182Z,6.60
2022-11-30T21:56:28.517Z,6.60
2022-11-30T21:58:58.541Z,6.50
2022-11-30T22:01:28.645Z,6.50
2022-11-30T22:03:58.017Z,6.50
2022-11-30T22:06:27.463Z,6.50
2022-11-30T22:08:57.754Z,6.40
2022-11-30T22:11:25.614Z,6.40
2022-11-30T22:13:54.992Z,6.40
2022-11-30T22:16:27.796Z,6.40
2022-11-30T22:18:59.048Z,6.40
2022-11-30T22:21:28.608Z,6.40
2022-11-30T22:23:58.023Z,6.40
2022-11-30T22:26:27.327Z,6.40
2022-11-30T22:28:57.178Z,6.30
2022-11-30T22:31:28.205Z,6.30
2022-11-30T22:33:57.026Z,6.20
2022-11-30T22:36:26.530Z,6.20
2022-11-30T22:38:56.413Z,6.20
2022-11-30T22:41:25.023Z,6.20
2022-11-30T22:43:52.972Z,6.30
2022-11-30T22:46:23.013Z,6.30
2022-11-30T22:48:52.665Z,6.20
2022-11-30T22:51:22.243Z,6.10
2022-11-30T22:53:50.848Z,6.10
2022-11-30T22:56:20.700Z,6.10
2022-11-30T22:58:49.998Z,6.00
2022-11-30T23:01:19.693Z,6.00
2022-11-30T23:03:49.135Z,5.90
2022-11-30T23:06:19.935Z,6.00
2022-11-30T23:08:48.755Z,6.00
2022-11-30T23:11:18.780Z,6.00
2022-11-30T23:13:46.676Z,5.90
2022-11-30T23:16:16.185Z,5.90
2022-11-30T23:18:45.800Z,5.90
2022-11-30T23:21:15.550Z,6.00
2022-11-30T23:23:45.658Z,6.00
2022-11-30T23:26:15.935Z,5.90
2022-11-30T23:28:46.400Z,5.90
2022-11-30T23:31:32.575Z,5.80
2022-11-30T23:34:04.834Z,5.80
2022-11-30T23:36:33.693Z,5.70
2022-11-30T23:39:04.980Z,5.70
2022-11-30T23:41:32.885Z,5.60
2022-11-30T23:44:00.977Z,5.60
2022-11-30T23:46:29.122Z,5.60
2022-11-30T23:48:57.173Z,5.60
2022-11-30T23:51:25.702Z,5.60
2022-11-30T23:53:53.935Z,5.60
2022-11-30T23:56:24.384Z,5.60
2022-11-30T23:58:53.067Z,5.60
